This is the latest recevied weather packets stored in our database for station/object HB9BTL-13. If no packets are shown the sender has not sent any weather packets the latest 10 day(s).
| Time | Temp. | Humidity | Pressure | Rain* | Wind** | Luminosity | Snow |
|---|---|---|---|---|---|---|---|
| 1787437390 | 20° C | 58% | 1021.8 hPa | - | - | - | - |
| 1787436485 | 20° C | 59% | 1021.8 hPa | - | - | - | - |
| 1787435580 | 19.44° C | 59% | 1021.8 hPa | - | - | - | - |
| 1787434674 | 19.44° C | 64% | 1021.8 hPa | - | - | - | - |
| 1787433769 | 20° C | 62% | 1021.9 hPa | - | - | - | - |
| 1787432863 | 20.56° C | 57% | 1021.8 hPa | - | - | - | - |
| 1787431959 | 20° C | 60% | 1021.9 hPa | - | - | - | - |
| 1787431053 | 20.56° C | 53% | 1021.9 hPa | - | - | - | - |
| 1787430148 | 20.56° C | 55% | 1021.8 hPa | - | - | - | - |
| 1787429242 | 20.56° C | 59% | 1021.8 hPa | - | - | - | - |
| 1787428337 | 20.56° C | 55% | 1021.7 hPa | - | - | - | - |
| 1787427432 | 20.56° C | 57% | 1021.5 hPa | - | - | - | - |
| 1787426526 | 20° C | 59% | 1021.4 hPa | - | - | - | - |
| 1787425621 | 20° C | 59% | 1021.3 hPa | - | - | - | - |
| 1787424715 | 20.56° C | 56% | 1021.1 hPa | - | - | - | - |
| 1787423810 | 20.56° C | 56% | 1020.9 hPa | - | - | - | - |
| 1787422904 | 20.56° C | 54% | 1020.7 hPa | - | - | - | - |
| 1787421999 | 21.11° C | 52% | 1020.6 hPa | - | - | - | - |
| 1787421093 | 21.67° C | 49% | 1020.5 hPa | - | - | - | - |
| 1787420188 | 22.22° C | 45% | 1020.4 hPa | - | - | - | - |
| 1787419283 | 22.78° C | 45% | 1020.4 hPa | - | - | - | - |
| 1787418377 | 22.78° C | 44% | 1020.3 hPa | - | - | - | - |
| 1787417472 | 23.33° C | 46% | 1020.2 hPa | - | - | - | - |
| 1787416567 | 23.33° C | 44% | 1020.1 hPa | - | - | - | - |
| 1787415661 | 24.44° C | 43% | 1020 hPa | - | - | - | - |
* Rain since midnight (hover to see other rain measurements)
** Current wind speed in m/s (hover to see current wind gust speed)